Akron, Iowa
Current Conditions -  °F | °C
As of 2:15 PM on Thursday 18 Dec 2014 (Local Time) from KLRJ Reporting Station
Overcast Overcast  
Wind Chill: 22°   Ceiling: 2600
Heat Index: 28°   Visibility: 10mi
Dew Point: 23°   Wind: 6mph
Humidity: 80%   Direction: 160°SSE
Pressure: 30.2"   Gusts: NA
Location:  42.83°N, 96.56°W
Report Text: KLRJ 182015Z AUTO 16005KT 10SM BKN026 OVC045 M02/M05 A3020 RMK AO2
Loading
Personal Weather Stations






























Interactive Weather Map New forecast layout! Learn more

10-Day Weather Forecast

Advertisements
Track Severe Weather on mobile